Saint Johns, AZ

7:32 AM MST on October 25, 2014 (GMT -0700)
Saint Johns Industrial | Change Station
CLOSE
Current Station
Airport
Location: St. Johns,
Elevation: 5725 ft
Nearby Weather Stations

Elev 5725 ft 34.52 °N, 109.38 °W | Updated 38 minutes ago

Clear
Clear
42 °F
Feels Like 42 °F
N
0
Wind Variable Wind from North

Today
High -- | Low -- °F
--% Chance of Precip.
Yesterday
High -- | Low -- °F
Precip. -- in
6:31 AM 5:31 PM
Waxing Crescent, 3% visible
Pressure 30.19 in
Visibility 10.0 miles
Clouds Clear
Dew Point 37 °F
Humidity 82%
Rainfall 0.00 in
Snow Depth Not available.
UV 0 out of 12
Pollen 5.00 out of 12
Air Quality Not available.
Flu Activity No Activity
METAR KSJN 251354Z AUTO 00000KT 10SM CLR 06/03 A3032 RMK AO2 SLP221 T00560028

More Conditions Fewer Conditions

Pressure 30.19 in
Visibility 10.0 miles
Clouds Clear
Dew Point 37 °F
Humidity 82%
Rainfall 0.00 in
Snow Depth Not available.
UV 0 out of 12
Pollen 5.00 out of 12
Air Quality Not available.
Flu Activity No Activity
METAR KSJN 251354Z AUTO 00000KT 10SM CLR 06/03 A3032 RMK AO2 SLP221 T00560028

More Conditions Fewer Conditions

10-Day Weather Forecast

Almanac

Astronomy

Oct. 25, 2014 Rise Set
Actual Time 6:31 AM MST 5:31 PM MST
Civil Twilight 6:05 AM MST 5:56 PM MST
Nautical Twilight 5:36 AM MST 6:26 PM MST
Astronomical Twilight 5:07 AM MST 6:55 PM MST
Moon 8:10 AM MST 7:00 PM MST
Length of Visible Light 11h 50m
Length of Day
10h 59m
Tomorrow will be 1m 57s shorter.
Waxing Crescent, 3% of the Moon is Illuminated
Today
Waxing Crescent
Oct 30
First Quarter
Nov 6
Full
Nov 14
Last Quarter
Nov 22
New

Today's Extremes

State Highs State Lows

Community

WunderPhotos

Upload Photos

1,764,852 photos uploaded!

Nearby

Snow Depth

Station Depth Elevation
Baldy 2 in 9125 ft
Maverick Fork 0 in 9200 ft
Coronado Trail 0 in 8400 ft
Wildcat 0 in 7850 ft
Beaver Head 2 in 7990 ft

Earthquake Activity

City Distance Mag. Time & Date
No recent earthquake activity has been reported nearby.
Minimum magnitude displayed is 2.5.

Coastal Water Temperatures

Place Temperature
No Stations Reporting

Nearby Weather Stations